createdAt,value
2022-10-10T00:00:49.116Z,8.63
2022-10-10T00:03:17.239Z,7.13
2022-10-10T00:05:45.167Z,3.70
2022-10-10T00:08:13.046Z,6.97
2022-10-10T00:10:42.303Z,6.10
2022-10-10T00:13:10.239Z,5.53
2022-10-10T00:15:38.127Z,7.67
2022-10-10T00:18:06.172Z,5.50
2022-10-10T00:20:34.053Z,6.83
2022-10-10T00:23:01.933Z,7.57
2022-10-10T00:25:29.784Z,5.80
2022-10-10T00:28:02.102Z,5.60
2022-10-10T00:30:30.020Z,7.47
2022-10-10T00:32:59.367Z,7.13
2022-10-10T00:35:27.341Z,8.30
2022-10-10T00:37:55.184Z,5.47
2022-10-10T00:40:23.293Z,6.47
2022-10-10T00:42:51.447Z,8.87
2022-10-10T00:45:27.880Z,7.00
2022-10-10T00:47:57.777Z,7.33
2022-10-10T00:50:25.641Z,4.03
2022-10-10T00:52:54.143Z,8.27
2022-10-10T00:55:22.135Z,6.60
2022-10-10T00:57:50.654Z,9.90
2022-10-10T01:00:18.929Z,7.53
2022-10-10T01:02:48.469Z,4.93
2022-10-10T01:05:16.737Z,9.07
2022-10-10T01:07:44.612Z,7.50
2022-10-10T01:10:13.633Z,7.63
2022-10-10T01:12:50.769Z,5.87
2022-10-10T01:15:22.275Z,6.87
2022-10-10T01:17:54.492Z,6.73
2022-10-10T01:20:39.061Z,9.90
2022-10-10T01:23:23.620Z,7.73
2022-10-10T01:25:58.848Z,5.93
2022-10-10T01:28:32.830Z,7.77
2022-10-10T01:31:00.804Z,16.90
2022-10-10T01:33:30.655Z,6.30
2022-10-10T01:36:00.300Z,10.27
2022-10-10T01:38:30.832Z,4.47
2022-10-10T01:41:02.087Z,4.47
2022-10-10T01:43:31.663Z,2.63
2022-10-10T01:45:59.657Z,2.53
2022-10-10T01:48:29.233Z,3.80
2022-10-10T01:51:06.187Z,1.83
2022-10-10T01:53:39.138Z,2.17
2022-10-10T01:56:09.507Z,2.67
2022-10-10T01:58:53.652Z,1.50
2022-10-10T02:01:23.612Z,1.40
2022-10-10T02:03:54.388Z,5.07
2022-10-10T02:06:23.551Z,2.20
2022-10-10T02:08:52.958Z,1.97
2022-10-10T02:11:20.872Z,8.00
2022-10-10T02:13:52.259Z,4.33
2022-10-10T02:16:22.074Z,7.53
2022-10-10T02:18:49.933Z,6.63
2022-10-10T02:21:17.846Z,6.27
2022-10-10T02:23:47.806Z,5.27
2022-10-10T02:26:17.337Z,5.27
2022-10-10T02:28:47.285Z,5.57
2022-10-10T02:31:18.224Z,9.27
2022-10-10T02:33:48.362Z,1.70
2022-10-10T02:36:16.251Z,5.07
2022-10-10T02:38:44.088Z,6.10
2022-10-10T02:41:12.642Z,4.30
2022-10-10T02:43:40.708Z,12.10
2022-10-10T02:46:10.220Z,7.97
2022-10-10T02:48:39.502Z,8.83
2022-10-10T02:51:07.619Z,13.77
2022-10-10T02:53:35.500Z,5.37
2022-10-10T02:56:03.415Z,9.37
2022-10-10T02:58:31.339Z,11.03
2022-10-10T03:00:59.348Z,11.73
2022-10-10T03:03:27.299Z,16.00
2022-10-10T03:05:56.507Z,12.93
2022-10-10T03:08:24.382Z,8.30
2022-10-10T03:10:56.697Z,13.10
2022-10-10T03:13:24.548Z,16.23
2022-10-10T03:15:52.545Z,14.50
2022-10-10T03:18:20.456Z,13.37
2022-10-10T03:20:48.472Z,8.00
2022-10-10T03:23:17.760Z,6.27
2022-10-10T03:25:45.627Z,14.77
2022-10-10T03:28:13.579Z,13.77
2022-10-10T03:30:41.527Z,14.23
2022-10-10T03:33:09.453Z,9.40
2022-10-10T03:35:37.291Z,7.73
2022-10-10T03:38:05.442Z,9.00
2022-10-10T03:40:34.795Z,9.93
2022-10-10T03:43:02.637Z,14.00
2022-10-10T03:45:30.637Z,9.40
2022-10-10T03:47:58.529Z,8.37
2022-10-10T03:50:26.402Z,10.33
2022-10-10T03:52:54.314Z,16.77
2022-10-10T03:55:22.162Z,9.93
2022-10-10T03:57:51.379Z,9.50
2022-10-10T04:00:19.395Z,10.63
2022-10-10T04:02:47.412Z,14.70
2022-10-10T04:05:15.401Z,9.07
2022-10-10T04:07:43.308Z,11.07
2022-10-10T04:10:11.371Z,13.90
2022-10-10T04:12:39.275Z,7.50
2022-10-10T04:15:09.704Z,9.30
2022-10-10T04:17:37.638Z,14.07
2022-10-10T04:20:06.216Z,6.80
2022-10-10T04:22:34.122Z,15.27
2022-10-10T04:25:01.986Z,7.90
2022-10-10T04:27:29.888Z,10.03
2022-10-10T04:29:57.790Z,16.60
2022-10-10T04:32:30.483Z,12.37
2022-10-10T04:34:58.785Z,7.37
2022-10-10T04:37:26.656Z,13.13
2022-10-10T04:39:54.501Z,14.17
2022-10-10T04:42:22.460Z,19.43
2022-10-10T04:44:50.320Z,14.13
2022-10-10T04:47:18.349Z,11.57
2022-10-10T04:49:47.726Z,13.77
2022-10-10T04:52:16.081Z,10.13
2022-10-10T04:54:43.980Z,15.10
2022-10-10T04:57:12.176Z,12.13
2022-10-10T04:59:40.065Z,7.67
2022-10-10T05:02:07.970Z,8.67
2022-10-10T05:04:36.081Z,12.63
2022-10-10T05:07:05.437Z,6.03
2022-10-10T05:09:33.780Z,7.47
2022-10-10T05:12:01.764Z,9.47
2022-10-10T05:14:29.802Z,12.47
2022-10-10T05:16:57.696Z,7.33
2022-10-10T05:19:25.859Z,11.60
2022-10-10T05:21:53.753Z,10.53
2022-10-10T05:24:23.612Z,18.97
2022-10-10T05:26:51.494Z,12.43
2022-10-10T05:29:19.444Z,13.17
2022-10-10T05:31:47.297Z,7.03
2022-10-10T05:34:15.512Z,10.73
2022-10-10T05:36:43.512Z,14.20
2022-10-10T05:39:11.413Z,8.03
2022-10-10T05:41:40.692Z,16.17
2022-10-10T05:44:09.274Z,7.73
2022-10-10T05:46:37.129Z,12.30
2022-10-10T05:49:05.068Z,10.93
2022-10-10T05:51:32.940Z,6.87
2022-10-10T05:54:00.836Z,7.07
2022-10-10T05:56:28.713Z,8.10
2022-10-10T05:58:57.983Z,8.43
2022-10-10T06:01:25.812Z,10.50
2022-10-10T06:03:56.080Z,9.53
2022-10-10T06:06:24.084Z,7.47
2022-10-10T06:08:51.995Z,14.63
2022-10-10T06:11:20.779Z,12.87
2022-10-10T06:13:52.619Z,11.87
2022-10-10T06:16:22.145Z,8.00
2022-10-10T06:18:50.087Z,14.30
2022-10-10T06:21:18.145Z,7.73
2022-10-10T06:23:50.046Z,13.17
2022-10-10T06:26:17.992Z,12.40
2022-10-10T06:28:45.944Z,12.03
2022-10-10T06:31:14.161Z,10.80
2022-10-10T06:33:45.640Z,13.90
2022-10-10T06:36:15.108Z,13.87
2022-10-10T06:38:43.772Z,12.10
2022-10-10T06:41:24.913Z,8.17
2022-10-10T06:43:52.774Z,7.93
2022-10-10T06:46:20.620Z,12.90
2022-10-10T06:48:49.931Z,13.13
2022-10-10T06:51:17.913Z,9.27
2022-10-10T06:53:45.976Z,9.73
2022-10-10T06:56:30.440Z,13.10
2022-10-10T06:59:02.288Z,11.13
2022-10-10T07:01:30.288Z,10.47
2022-10-10T07:03:59.757Z,12.70
2022-10-10T07:06:35.229Z,12.10
2022-10-10T07:09:03.469Z,13.03
2022-10-10T07:11:31.356Z,12.93
2022-10-10T07:13:59.248Z,12.17
2022-10-10T07:16:27.152Z,14.97
2022-10-10T07:18:55.200Z,8.83
2022-10-10T07:21:24.448Z,13.40
2022-10-10T07:23:52.330Z,11.50
2022-10-10T07:26:22.363Z,7.83
2022-10-10T07:28:50.365Z,14.23
2022-10-10T07:31:18.271Z,8.27
2022-10-10T07:33:50.968Z,10.43
2022-10-10T07:36:21.981Z,8.53
2022-10-10T07:38:55.312Z,10.13
2022-10-10T07:41:25.274Z,13.63
2022-10-10T07:43:55.515Z,14.17
2022-10-10T07:46:23.651Z,15.30
2022-10-10T07:48:51.677Z,9.70
2022-10-10T07:51:19.635Z,12.83
2022-10-10T07:53:47.805Z,11.50
2022-10-10T07:56:23.057Z,8.97
2022-10-10T07:58:51.591Z,9.50
2022-10-10T08:01:24.880Z,17.00
2022-10-10T08:03:52.807Z,10.53
2022-10-10T08:06:20.683Z,13.33
2022-10-10T08:08:51.741Z,10.17
2022-10-10T08:11:21.801Z,6.10
2022-10-10T08:13:50.062Z,13.83
2022-10-10T08:16:18.043Z,11.97
2022-10-10T08:18:46.006Z,14.83
2022-10-10T08:21:14.626Z,14.10
2022-10-10T08:23:42.686Z,6.60
2022-10-10T08:26:11.317Z,13.77
2022-10-10T08:28:40.794Z,13.77
2022-10-10T08:31:08.823Z,15.80
2022-10-10T08:33:36.741Z,10.00
2022-10-10T08:36:08.248Z,12.70
2022-10-10T08:38:38.567Z,11.23
2022-10-10T08:41:15.676Z,5.60
2022-10-10T08:43:48.839Z,13.73
2022-10-10T08:46:22.872Z,11.63
2022-10-10T08:48:50.801Z,8.13
2022-10-10T08:51:25.617Z,15.60
2022-10-10T08:53:54.631Z,19.53
2022-10-10T08:56:25.686Z,17.00
2022-10-10T08:58:56.514Z,6.73
2022-10-10T09:01:33.798Z,17.63
2022-10-10T09:04:02.032Z,13.00
2022-10-10T09:06:52.563Z,12.63
2022-10-10T09:09:23.258Z,11.53
2022-10-10T09:11:58.041Z,12.03
2022-10-10T09:14:34.683Z,9.47
2022-10-10T09:17:04.206Z,12.47
2022-10-10T09:19:39.319Z,16.63
2022-10-10T09:22:11.854Z,12.67
2022-10-10T09:24:43.522Z,12.67
2022-10-10T09:27:13.862Z,10.40
2022-10-10T09:29:45.043Z,12.73
2022-10-10T09:32:14.379Z,8.03
2022-10-10T09:34:43.550Z,11.77
2022-10-10T09:37:24.404Z,11.73
2022-10-10T09:40:04.269Z,6.97
2022-10-10T09:42:34.886Z,10.23
2022-10-10T09:45:25.139Z,13.17
2022-10-10T09:47:55.516Z,17.83
2022-10-10T09:50:23.595Z,11.07
2022-10-10T09:52:51.553Z,10.60
2022-10-10T09:55:27.575Z,14.63
2022-10-10T09:57:56.611Z,13.77
2022-10-10T10:00:34.767Z,11.73
2022-10-10T10:03:07.797Z,10.57
2022-10-10T10:05:35.759Z,11.63
2022-10-10T10:08:03.628Z,14.67
2022-10-10T10:10:31.566Z,6.07
2022-10-10T10:13:05.509Z,10.10
2022-10-10T10:15:37.655Z,8.47
2022-10-10T10:18:11.814Z,11.73
2022-10-10T10:20:40.391Z,9.53
2022-10-10T10:23:26.260Z,12.00
2022-10-10T10:26:01.305Z,14.20
2022-10-10T10:28:29.840Z,10.30
2022-10-10T10:30:59.653Z,8.03
2022-10-10T10:33:37.664Z,12.03
2022-10-10T10:36:11.800Z,8.87
2022-10-10T10:38:47.636Z,9.93
2022-10-10T10:41:19.522Z,8.77
2022-10-10T10:43:53.377Z,11.77
2022-10-10T10:46:28.871Z,12.87
2022-10-10T10:49:02.115Z,9.37
2022-10-10T10:51:49.545Z,3.27
2022-10-10T10:54:26.291Z,6.20
2022-10-10T10:57:01.983Z,9.63
2022-10-10T11:00:33.183Z,5.17
2022-10-10T11:03:05.701Z,8.60
2022-10-10T11:05:40.785Z,9.90
2022-10-10T11:08:40.176Z,7.97
2022-10-10T11:11:34.196Z,7.87
2022-10-10T11:14:03.855Z,4.97
2022-10-10T11:16:50.597Z,7.63
2022-10-10T11:19:36.521Z,8.03
2022-10-10T11:22:07.263Z,7.57
2022-10-10T11:24:43.045Z,8.55
2022-10-10T11:27:14.132Z,7.47
2022-10-10T11:29:50.698Z,7.90
2022-10-10T11:35:03.272Z,8.65
2022-10-10T11:37:32.119Z,11.38
2022-10-10T11:40:02.298Z,7.30
2022-10-10T11:42:32.635Z,9.33
2022-10-10T11:45:01.187Z,5.13
2022-10-10T11:47:32.352Z,9.97
2022-10-10T11:50:03.817Z,8.10
2022-10-10T11:52:40.803Z,10.30
2022-10-10T11:55:11.720Z,3.13
2022-10-10T11:57:41.886Z,10.30
2022-10-10T12:00:18.553Z,10.50
2022-10-10T12:02:50.078Z,6.30
2022-10-10T12:05:22.546Z,5.95
2022-10-10T12:08:01.509Z,9.10
2022-10-10T12:10:31.669Z,4.05
2022-10-10T12:13:02.738Z,7.70
2022-10-10T12:15:31.411Z,8.00
2022-10-10T12:17:59.396Z,5.25
2022-10-10T12:20:34.422Z,5.90
2022-10-10T12:23:34.794Z,5.00
2022-10-10T12:26:05.667Z,2.17
2022-10-10T12:28:37.757Z,10.07
2022-10-10T12:31:30.039Z,5.20
2022-10-10T12:34:36.700Z,10.48
2022-10-10T12:37:26.149Z,7.10
2022-10-10T12:40:29.367Z,8.18
2022-10-10T12:43:05.487Z,7.30
2022-10-10T12:45:59.270Z,5.07
2022-10-10T12:48:27.226Z,6.72
2022-10-10T12:51:01.805Z,8.02
2022-10-10T12:53:32.586Z,5.57
2022-10-10T12:56:01.657Z,3.58
2022-10-10T12:58:30.502Z,4.47
2022-10-10T13:01:02.786Z,6.40
2022-10-10T13:03:32.850Z,5.70
2022-10-10T13:06:04.331Z,6.15
2022-10-10T13:08:33.757Z,6.63
2022-10-10T13:11:06.968Z,7.97
2022-10-10T13:13:35.085Z,4.72
2022-10-10T13:16:07.926Z,4.43
2022-10-10T13:18:37.151Z,5.13
2022-10-10T13:21:06.086Z,5.40
2022-10-10T13:23:36.477Z,5.68
2022-10-10T13:26:04.635Z,6.75
2022-10-10T13:28:33.036Z,9.18
2022-10-10T13:31:01.170Z,8.25
2022-10-10T13:33:31.953Z,4.32
2022-10-10T13:36:06.022Z,3.25
2022-10-10T13:38:33.973Z,6.25
2022-10-10T13:41:05.388Z,9.48
2022-10-10T13:43:34.451Z,9.63
2022-10-10T13:46:03.493Z,11.13
2022-10-10T13:48:40.941Z,7.43
2022-10-10T13:51:10.598Z,5.93
2022-10-10T13:53:49.521Z,10.25
2022-10-10T13:56:26.929Z,13.45
2022-10-10T13:58:56.070Z,4.22
2022-10-10T14:01:30.726Z,6.47
2022-10-10T14:04:01.347Z,8.90
2022-10-10T14:06:29.512Z,6.38
2022-10-10T14:09:07.870Z,5.43
2022-10-10T14:11:41.233Z,9.18
2022-10-10T14:14:25.253Z,9.63
2022-10-10T14:17:00.254Z,7.40
2022-10-10T14:19:28.436Z,7.85
2022-10-10T14:21:57.188Z,9.10
2022-10-10T14:24:29.717Z,5.25
2022-10-10T14:26:59.124Z,5.38
2022-10-10T14:29:27.097Z,8.02
2022-10-10T14:31:55.056Z,5.13
2022-10-10T14:34:22.961Z,8.85
2022-10-10T14:36:51.399Z,7.18
2022-10-10T14:39:19.929Z,8.85
2022-10-10T14:41:48.027Z,5.30
2022-10-10T14:44:17.301Z,6.40
2022-10-10T14:46:45.351Z,9.43
2022-10-10T14:49:17.494Z,4.75
2022-10-10T14:51:45.499Z,9.65
2022-10-10T14:54:14.027Z,5.90
2022-10-10T14:57:07.453Z,8.65
2022-10-10T14:59:48.014Z,4.53
2022-10-10T15:02:21.299Z,3.90
2022-10-10T15:04:49.258Z,6.13
2022-10-10T15:07:18.329Z,10.35
2022-10-10T15:10:17.605Z,6.85
2022-10-10T15:12:42.679Z,11.43
2022-10-10T15:15:12.798Z,13.00
2022-10-10T15:17:41.095Z,9.15
2022-10-10T15:20:10.517Z,8.25
2022-10-10T15:22:38.529Z,5.75
2022-10-10T15:25:07.343Z,8.70
2022-10-10T15:27:35.298Z,6.93
2022-10-10T15:30:03.313Z,9.05
2022-10-10T15:32:40.746Z,9.38
2022-10-10T15:35:11.756Z,6.80
2022-10-10T15:37:39.693Z,6.38
2022-10-10T15:40:08.336Z,11.77
2022-10-10T15:42:36.272Z,11.30
2022-10-10T15:45:04.193Z,8.90
2022-10-10T15:47:33.790Z,9.10
2022-10-10T15:50:01.743Z,6.60
2022-10-10T15:52:32.721Z,6.33
2022-10-10T15:55:00.593Z,9.53
2022-10-10T15:57:28.476Z,8.67
2022-10-10T15:59:56.368Z,9.77
2022-10-10T16:02:24.372Z,9.37
2022-10-10T16:04:53.710Z,10.67
2022-10-10T16:07:29.175Z,17.27
2022-10-10T16:09:59.002Z,11.43
2022-10-10T16:12:27.085Z,7.43
2022-10-10T16:14:55.398Z,11.03
2022-10-10T16:17:24.678Z,13.33
2022-10-10T16:20:00.245Z,12.43
2022-10-10T16:22:28.133Z,10.37
2022-10-10T16:25:22.011Z,8.03
2022-10-10T16:27:51.884Z,13.10
2022-10-10T16:30:20.957Z,14.83
2022-10-10T16:32:49.364Z,8.53
2022-10-10T16:35:19.198Z,12.93
2022-10-10T16:37:47.200Z,12.80
2022-10-10T16:40:21.158Z,13.43
2022-10-10T16:42:49.209Z,18.33
2022-10-10T16:45:17.157Z,13.97
2022-10-10T16:47:45.107Z,11.50
2022-10-10T16:50:13.295Z,14.27
2022-10-10T16:52:48.221Z,7.67
2022-10-10T16:55:16.238Z,13.57
2022-10-10T16:57:44.201Z,13.87
2022-10-10T17:00:12.814Z,12.60
2022-10-10T17:02:42.420Z,6.60
2022-10-10T17:05:10.734Z,7.13
2022-10-10T17:07:38.622Z,5.90
2022-10-10T17:10:09.300Z,11.87
2022-10-10T17:12:37.453Z,15.60
2022-10-10T17:15:06.811Z,9.10
2022-10-10T17:17:35.395Z,16.83
2022-10-10T17:20:03.267Z,9.77
2022-10-10T17:22:31.833Z,12.97
2022-10-10T17:24:59.800Z,10.77
2022-10-10T17:27:29.105Z,15.53
2022-10-10T17:29:57.168Z,8.90
2022-10-10T17:32:26.518Z,16.50
2022-10-10T17:34:55.681Z,14.47
2022-10-10T17:37:26.327Z,13.43
2022-10-10T17:39:54.332Z,12.30
2022-10-10T17:42:22.430Z,14.70
2022-10-10T17:44:56.192Z,14.97
2022-10-10T17:47:27.032Z,9.27
2022-10-10T17:49:54.982Z,10.87
2022-10-10T17:52:25.538Z,15.30
2022-10-10T17:54:53.494Z,20.33
2022-10-10T17:57:21.343Z,15.33
2022-10-10T17:59:49.312Z,12.13
2022-10-10T18:02:19.121Z,27.63
2022-10-10T18:04:47.073Z,15.10
2022-10-10T18:07:15.172Z,12.73
2022-10-10T18:09:46.117Z,23.00
2022-10-10T18:12:14.037Z,14.63
2022-10-10T18:14:41.881Z,14.87
2022-10-10T18:17:09.778Z,14.73
2022-10-10T18:19:39.027Z,11.60
2022-10-10T18:22:07.099Z,9.30
2022-10-10T18:24:34.958Z,12.90
2022-10-10T18:27:02.861Z,12.47
2022-10-10T18:29:30.710Z,8.37
2022-10-10T18:31:58.621Z,14.90
2022-10-10T18:34:26.721Z,12.03
2022-10-10T18:36:56.072Z,9.30
2022-10-10T18:39:25.194Z,14.67
2022-10-10T18:41:55.329Z,8.17
2022-10-10T18:44:23.213Z,8.43
2022-10-10T18:46:51.215Z,14.20
2022-10-10T18:49:19.549Z,8.50
2022-10-10T18:51:47.447Z,9.27
2022-10-10T18:54:17.522Z,17.33
2022-10-10T18:56:45.842Z,21.20
2022-10-10T18:59:23.081Z,22.50
2022-10-10T19:01:52.565Z,17.07
2022-10-10T19:04:22.633Z,20.90
2022-10-10T19:06:54.657Z,17.60
2022-10-10T19:09:29.709Z,19.77
2022-10-10T19:11:57.664Z,24.77
2022-10-10T19:14:25.520Z,18.97
2022-10-10T19:16:53.412Z,29.43
2022-10-10T19:19:21.393Z,27.93
2022-10-10T19:21:52.412Z,32.13
2022-10-10T19:24:21.390Z,28.43
2022-10-10T19:26:55.956Z,20.60
2022-10-10T19:29:24.182Z,20.40
2022-10-10T19:31:52.250Z,23.40
2022-10-10T19:34:20.181Z,20.87
2022-10-10T19:36:48.059Z,20.77
2022-10-10T19:39:19.316Z,19.83
2022-10-10T19:41:50.103Z,26.43
2022-10-10T19:44:19.583Z,15.70
2022-10-10T19:46:47.977Z,14.93
2022-10-10T19:49:18.437Z,10.20
2022-10-10T19:51:47.559Z,23.13
2022-10-10T19:54:16.056Z,20.70
2022-10-10T19:56:43.960Z,23.43
2022-10-10T19:59:11.891Z,23.70
2022-10-10T20:01:41.293Z,25.87
2022-10-10T20:04:09.271Z,23.33
2022-10-10T20:06:37.445Z,25.80
2022-10-10T20:09:10.367Z,18.00
2022-10-10T20:11:38.910Z,14.47
2022-10-10T20:14:06.863Z,16.97
2022-10-10T20:16:34.688Z,18.83
2022-10-10T20:19:04.141Z,16.30
2022-10-10T20:21:32.887Z,14.50
2022-10-10T20:24:01.336Z,13.03
2022-10-10T20:26:29.313Z,15.67
2022-10-10T20:28:57.683Z,15.80
2022-10-10T20:31:26.843Z,9.90
2022-10-10T20:33:55.890Z,16.90
2022-10-10T20:36:27.477Z,16.40
2022-10-10T20:38:55.634Z,19.90
2022-10-10T20:41:24.553Z,16.00
2022-10-10T20:43:58.148Z,20.50
2022-10-10T20:46:26.651Z,21.40
2022-10-10T20:48:54.994Z,18.50
2022-10-10T20:51:22.890Z,16.23
2022-10-10T20:53:57.186Z,9.53
2022-10-10T20:56:25.872Z,20.00
2022-10-10T20:58:54.135Z,15.40
2022-10-10T21:01:23.094Z,10.23
2022-10-10T21:03:51.041Z,12.93
2022-10-10T21:06:19.616Z,17.37
2022-10-10T21:08:47.494Z,20.63
2022-10-10T21:11:16.913Z,16.70
2022-10-10T21:13:45.751Z,22.20
2022-10-10T21:16:14.836Z,11.93
2022-10-10T21:18:44.604Z,18.53
2022-10-10T21:21:21.636Z,16.67
2022-10-10T21:23:52.695Z,16.27
2022-10-10T21:26:24.671Z,20.10
2022-10-10T21:28:52.757Z,20.17
2022-10-10T21:31:21.598Z,19.67
2022-10-10T21:33:49.420Z,21.67
2022-10-10T21:36:17.563Z,22.53
2022-10-10T21:38:45.460Z,13.97
2022-10-10T21:41:16.175Z,35.60
2022-10-10T21:43:46.264Z,42.47
2022-10-10T21:46:15.338Z,31.73
2022-10-10T21:48:43.385Z,29.03
2022-10-10T21:51:11.273Z,13.27
2022-10-10T21:53:39.140Z,12.23
2022-10-10T21:56:08.971Z,21.27
2022-10-10T21:58:37.766Z,35.83
2022-10-10T22:01:10.512Z,39.03
2022-10-10T22:03:38.484Z,134.43
2022-10-10T22:06:07.185Z,85.43
2022-10-10T22:08:35.616Z,93.93
2022-10-10T22:11:03.705Z,60.70
2022-10-10T22:13:31.611Z,45.43
2022-10-10T22:15:59.704Z,32.67
2022-10-10T22:18:29.006Z,25.87
2022-10-10T22:20:56.920Z,21.80
2022-10-10T22:23:24.828Z,12.90
2022-10-10T22:25:52.732Z,18.53
2022-10-10T22:28:20.687Z,9.97
2022-10-10T22:30:48.588Z,12.37
2022-10-10T22:33:16.480Z,14.50
2022-10-10T22:35:45.785Z,11.83
2022-10-10T22:38:13.629Z,8.33
2022-10-10T22:40:41.460Z,9.50
2022-10-10T22:43:09.310Z,14.83
2022-10-10T22:45:37.229Z,11.93
2022-10-10T22:48:05.216Z,22.17
2022-10-10T22:50:33.652Z,16.10
2022-10-10T22:53:03.023Z,14.77
2022-10-10T22:55:31.248Z,15.17
2022-10-10T22:57:59.111Z,15.00
2022-10-10T23:00:27.075Z,14.03
2022-10-10T23:02:57.947Z,15.63
2022-10-10T23:05:25.989Z,15.97
2022-10-10T23:07:53.928Z,13.13
2022-10-10T23:10:23.165Z,18.03
2022-10-10T23:12:51.068Z,17.40
2022-10-10T23:15:18.941Z,15.00
2022-10-10T23:17:46.800Z,12.60
2022-10-10T23:20:14.736Z,15.40
2022-10-10T23:22:42.592Z,11.97
2022-10-10T23:25:10.656Z,9.23
2022-10-10T23:27:39.904Z,14.00
2022-10-10T23:30:08.565Z,11.83
2022-10-10T23:32:36.428Z,7.37
2022-10-10T23:35:04.351Z,13.93
2022-10-10T23:37:32.219Z,9.50
2022-10-10T23:40:00.141Z,11.77
2022-10-10T23:42:28.046Z,15.90
2022-10-10T23:44:57.304Z,18.87
2022-10-10T23:47:25.174Z,17.20
2022-10-10T23:49:52.993Z,16.57
2022-10-10T23:52:20.858Z,15.53
2022-10-10T23:54:48.700Z,24.30
2022-10-10T23:57:16.591Z,10.87
2022-10-10T23:59:44.441Z,10.60
